sensor_id;sensor_type;location;lat;lon;timestamp;pressure;altitude;pressure_sealevel;temperature;humidity
65718;BME280;52445;52.466;-1.016;2022-11-18T00:01:26;97510.09;;;9.10;81.61
65718;BME280;52445;52.466;-1.016;2022-11-18T00:03:53;97516.06;;;9.12;81.65
65718;BME280;52445;52.466;-1.016;2022-11-18T00:06:22;97526.28;;;9.13;81.34
65718;BME280;52445;52.466;-1.016;2022-11-18T00:08:51;97537.53;;;9.12;82.11
65718;BME280;52445;52.466;-1.016;2022-11-18T00:11:23;97537.47;;;9.14;81.36
65718;BME280;52445;52.466;-1.016;2022-11-18T00:14:12;97540.06;;;9.14;81.79
65718;BME280;52445;52.466;-1.016;2022-11-18T00:16:57;97539.28;;;9.12;81.63
65718;BME280;52445;52.466;-1.016;2022-11-18T00:19:28;97540.06;;;9.14;81.41
65718;BME280;52445;52.466;-1.016;2022-11-18T00:21:55;97551.97;;;9.18;81.69
65718;BME280;52445;52.466;-1.016;2022-11-18T00:24:23;97557.22;;;9.15;81.28
65718;BME280;52445;52.466;-1.016;2022-11-18T00:26:50;97563.97;;;9.19;81.06
65718;BME280;52445;52.466;-1.016;2022-11-18T00:29:17;97563.97;;;9.19;81.27
65718;BME280;52445;52.466;-1.016;2022-11-18T00:31:45;97565.66;;;9.20;81.71
65718;BME280;52445;52.466;-1.016;2022-11-18T00:34:13;97563.84;;;9.22;81.49
65718;BME280;52445;52.466;-1.016;2022-11-18T00:36:41;97566.50;;;9.21;81.29
65718;BME280;52445;52.466;-1.016;2022-11-18T00:39:10;97565.66;;;9.20;81.20
65718;BME280;52445;52.466;-1.016;2022-11-18T00:41:37;97575.19;;;9.18;81.21
65718;BME280;52445;52.466;-1.016;2022-11-18T00:44:24;97576.00;;;9.20;81.42
65718;BME280;52445;52.466;-1.016;2022-11-18T00:46:52;97574.28;;;9.19;81.34
65718;BME280;52445;52.466;-1.016;2022-11-18T00:49:18;97591.50;;;9.20;81.40
65718;BME280;52445;52.466;-1.016;2022-11-18T00:51:45;97588.00;;;9.21;81.35
65718;BME280;52445;52.466;-1.016;2022-11-18T00:54:12;97595.81;;;9.20;81.61
65718;BME280;52445;52.466;-1.016;2022-11-18T00:56:38;97590.84;;;9.13;81.56
65718;BME280;52445;52.466;-1.016;2022-11-18T00:59:05;97600.25;;;9.16;81.62
65718;BME280;52445;52.466;-1.016;2022-11-18T01:01:31;97599.50;;;9.12;81.14
65718;BME280;52445;52.466;-1.016;2022-11-18T01:03:58;97608.09;;;9.13;81.43
65718;BME280;52445;52.466;-1.016;2022-11-18T01:06:25;97605.53;;;9.13;81.44
65718;BME280;52445;52.466;-1.016;2022-11-18T01:08:52;97603.97;;;9.09;82.37
65718;BME280;52445;52.466;-1.016;2022-11-18T01:11:18;97608.16;;;9.11;81.83
65718;BME280;52445;52.466;-1.016;2022-11-18T01:14:05;97612.47;;;9.11;81.26
65718;BME280;52445;52.466;-1.016;2022-11-18T01:16:31;97612.47;;;9.11;81.40
65718;BME280;52445;52.466;-1.016;2022-11-18T01:18:58;97622.81;;;9.11;81.21
65718;BME280;52445;52.466;-1.016;2022-11-18T01:21:28;97627.16;;;9.10;81.45
65718;BME280;52445;52.466;-1.016;2022-11-18T01:23:56;97622.81;;;9.11;81.69
65718;BME280;52445;52.466;-1.016;2022-11-18T01:26:24;97634.84;;;9.12;81.80
65718;BME280;52445;52.466;-1.016;2022-11-18T01:28:55;97633.94;;;9.13;81.41
65718;BME280;52445;52.466;-1.016;2022-11-18T01:31:24;97642.63;;;9.10;81.64
65718;BME280;52445;52.466;-1.016;2022-11-18T01:33:52;97633.13;;;9.11;81.54
65718;BME280;52445;52.466;-1.016;2022-11-18T01:36:23;97646.94;;;9.10;81.25
65718;BME280;52445;52.466;-1.016;2022-11-18T01:38:53;97648.63;;;9.11;82.37
65718;BME280;52445;52.466;-1.016;2022-11-18T01:41:24;97644.41;;;9.08;81.49
65718;BME280;52445;52.466;-1.016;2022-11-18T01:43:56;97652.22;;;9.07;81.62
65718;BME280;52445;52.466;-1.016;2022-11-18T01:46:27;97654.03;;;9.05;81.78
65718;BME280;52445;52.466;-1.016;2022-11-18T01:51:38;97666.03;;;9.06;81.73
65718;BME280;52445;52.466;-1.016;2022-11-18T01:54:16;97660.00;;;9.05;81.29
65718;BME280;52445;52.466;-1.016;2022-11-18T01:56:49;97670.28;;;9.07;81.41
65718;BME280;52445;52.466;-1.016;2022-11-18T01:59:21;97672.88;;;9.07;81.68
65718;BME280;52445;52.466;-1.016;2022-11-18T02:01:49;97672.97;;;9.04;81.87
65718;BME280;52445;52.466;-1.016;2022-11-18T02:04:22;97678.03;;;9.07;81.90
65718;BME280;52445;52.466;-1.016;2022-11-18T02:06:50;97680.66;;;9.05;81.75
65718;BME280;52445;52.466;-1.016;2022-11-18T02:09:17;97681.47;;;9.07;81.69
65718;BME280;52445;52.466;-1.016;2022-11-18T02:11:44;97683.31;;;9.04;81.81
65718;BME280;52445;52.466;-1.016;2022-11-18T02:14:29;97697.88;;;9.06;81.88
65718;BME280;52445;52.466;-1.016;2022-11-18T02:25:53;97699.78;;;8.99;81.87
65718;BME280;52445;52.466;-1.016;2022-11-18T02:40:00;97730.69;;;9.03;82.10
65718;BME280;52445;52.466;-1.016;2022-11-18T02:42:29;97729.91;;;9.00;82.26
65718;BME280;52445;52.466;-1.016;2022-11-18T02:45:02;97731.59;;;9.02;82.00
65718;BME280;52445;52.466;-1.016;2022-11-18T02:47:32;97733.25;;;9.03;82.10
65718;BME280;52445;52.466;-1.016;2022-11-18T02:50:04;97738.44;;;9.03;82.29
65718;BME280;52445;52.466;-1.016;2022-11-18T02:52:33;97741.09;;;8.99;82.07
65718;BME280;52445;52.466;-1.016;2022-11-18T02:55:06;97750.47;;;9.02;82.13
65718;BME280;52445;52.466;-1.016;2022-11-18T02:57:35;97741.91;;;9.02;82.29
65718;BME280;52445;52.466;-1.016;2022-11-18T03:00:03;97742.88;;;8.99;82.49
65718;BME280;52445;52.466;-1.016;2022-11-18T03:02:39;97752.34;;;8.98;82.28
65718;BME280;52445;52.466;-1.016;2022-11-18T03:05:09;97753.19;;;8.99;82.51
65718;BME280;52445;52.466;-1.016;2022-11-18T03:07:41;97758.31;;;9.00;82.35
65718;BME280;52445;52.466;-1.016;2022-11-18T03:10:09;97761.75;;;8.99;82.54
65718;BME280;52445;52.466;-1.016;2022-11-18T03:18:31;97764.34;;;8.99;82.68
65718;BME280;52445;52.466;-1.016;2022-11-18T03:21:15;97771.31;;;8.97;82.57
65718;BME280;52445;52.466;-1.016;2022-11-18T03:23:58;97779.84;;;8.99;82.61
65718;BME280;52445;52.466;-1.016;2022-11-18T03:26:35;97775.63;;;8.97;82.62
65718;BME280;52445;52.466;-1.016;2022-11-18T03:29:09;97782.41;;;8.99;82.07
65718;BME280;52445;52.466;-1.016;2022-11-18T03:31:41;97779.84;;;8.99;82.61
65718;BME280;52445;52.466;-1.016;2022-11-18T03:36:49;97785.00;;;8.99;81.90
65718;BME280;52445;52.466;-1.016;2022-11-18T03:39:19;97796.09;;;9.03;82.49
65718;BME280;52445;52.466;-1.016;2022-11-18T03:41:53;97799.53;;;9.02;82.17
65718;BME280;52445;52.466;-1.016;2022-11-18T03:44:33;97804.72;;;9.02;82.49
65718;BME280;52445;52.466;-1.016;2022-11-18T03:47:05;97809.88;;;9.02;82.20
65718;BME280;52445;52.466;-1.016;2022-11-18T03:49:41;97814.16;;;9.03;82.32
65718;BME280;52445;52.466;-1.016;2022-11-18T03:52:14;97816.75;;;9.03;82.23
65718;BME280;52445;52.466;-1.016;2022-11-18T03:54:44;97809.78;;;9.05;81.77
65718;BME280;52445;52.466;-1.016;2022-11-18T03:57:17;97820.97;;;9.06;81.65
65718;BME280;52445;52.466;-1.016;2022-11-18T03:59:51;97822.69;;;9.05;82.24
65718;BME280;52445;52.466;-1.016;2022-11-18T04:02:22;97832.38;;;8.98;82.16
65718;BME280;52445;52.466;-1.016;2022-11-18T04:04:52;97843.31;;;9.07;82.13
65718;BME280;52445;52.466;-1.016;2022-11-18T04:07:32;97838.09;;;9.08;82.06
65718;BME280;52445;52.466;-1.016;2022-11-18T04:10:23;97839.19;;;9.01;82.34
65718;BME280;52445;52.466;-1.016;2022-11-18T04:13:00;97850.28;;;9.05;81.54
65718;BME280;52445;52.466;-1.016;2022-11-18T04:15:32;97849.38;;;9.06;82.14
65718;BME280;52445;52.466;-1.016;2022-11-18T04:18:01;97857.91;;;9.08;81.96
65718;BME280;52445;52.466;-1.016;2022-11-18T04:20:28;97860.47;;;9.08;81.84
65718;BME280;52445;52.466;-1.016;2022-11-18T04:22:57;97860.47;;;9.08;81.83
65718;BME280;52445;52.466;-1.016;2022-11-18T04:25:23;97866.50;;;9.08;81.75
65718;BME280;52445;52.466;-1.016;2022-11-18T04:27:50;97863.97;;;9.07;81.80
65718;BME280;52445;52.466;-1.016;2022-11-18T04:30:17;97868.22;;;9.08;81.87
65718;BME280;52445;52.466;-1.016;2022-11-18T04:32:44;97871.72;;;9.07;81.76
65718;BME280;52445;52.466;-1.016;2022-11-18T04:35:11;97875.16;;;9.07;81.54
65718;BME280;52445;52.466;-1.016;2022-11-18T04:37:38;97871.81;;;9.04;81.63
65718;BME280;52445;52.466;-1.016;2022-11-18T04:40:05;97881.25;;;9.05;81.58
65718;BME280;52445;52.466;-1.016;2022-11-18T04:42:31;97882.94;;;9.06;81.61
65718;BME280;52445;52.466;-1.016;2022-11-18T04:44:58;97884.66;;;9.05;81.54
65718;BME280;52445;52.466;-1.016;2022-11-18T04:47:25;97896.75;;;9.05;81.36
65718;BME280;52445;52.466;-1.016;2022-11-18T04:49:51;97891.59;;;9.05;81.41
65718;BME280;52445;52.466;-1.016;2022-11-18T04:52:18;97896.63;;;9.08;81.41
65718;BME280;52445;52.466;-1.016;2022-11-18T04:54:45;97898.44;;;9.06;81.01
65718;BME280;52445;52.466;-1.016;2022-11-18T04:57:12;97897.53;;;9.07;81.17
65718;BME280;52445;52.466;-1.016;2022-11-18T04:59:39;97913.13;;;9.04;81.05
65718;BME280;52445;52.466;-1.016;2022-11-18T05:02:06;97913.22;;;9.00;80.98
65718;BME280;52445;52.466;-1.016;2022-11-18T05:04:33;97917.41;;;9.05;81.36
65718;BME280;52445;52.466;-1.016;2022-11-18T05:07:01;97921.75;;;9.03;80.97
65718;BME280;52445;52.466;-1.016;2022-11-18T05:09:28;97926.03;;;9.04;80.32
65718;BME280;52445;52.466;-1.016;2022-11-18T05:11:58;97932.91;;;9.05;80.83
65718;BME280;52445;52.466;-1.016;2022-11-18T05:14:44;97945.81;;;9.05;80.68
65718;BME280;52445;52.466;-1.016;2022-11-18T05:17:15;97941.53;;;9.04;80.66
65718;BME280;52445;52.466;-1.016;2022-11-18T05:19:42;97946.69;;;9.04;80.67
65718;BME280;52445;52.466;-1.016;2022-11-18T05:22:08;97945.00;;;9.03;80.38
65718;BME280;52445;52.466;-1.016;2022-11-18T05:24:35;97952.06;;;8.97;80.24
65718;BME280;52445;52.466;-1.016;2022-11-18T05:27:02;97951.16;;;8.98;80.39
65718;BME280;52445;52.466;-1.016;2022-11-18T05:29:28;97956.28;;;9.00;80.27
65718;BME280;52445;52.466;-1.016;2022-11-18T05:31:55;97961.44;;;9.00;80.25
65718;BME280;52445;52.466;-1.016;2022-11-18T05:34:21;97957.97;;;9.01;80.60
65718;BME280;52445;52.466;-1.016;2022-11-18T05:36:48;97968.28;;;9.01;80.61
65718;BME280;52445;52.466;-1.016;2022-11-18T05:39:15;97981.19;;;9.01;80.46
65718;BME280;52445;52.466;-1.016;2022-11-18T05:41:42;97971.75;;;9.00;80.48
65718;BME280;52445;52.466;-1.016;2022-11-18T05:44:28;97981.16;;;9.03;80.43
65718;BME280;52445;52.466;-1.016;2022-11-18T05:46:55;97989.78;;;9.02;80.19
65718;BME280;52445;52.466;-1.016;2022-11-18T05:49:22;97999.19;;;9.04;80.49
65718;BME280;52445;52.466;-1.016;2022-11-18T05:51:48;98003.59;;;9.00;80.06
65718;BME280;52445;52.466;-1.016;2022-11-18T05:54:17;98003.50;;;9.04;80.44
65718;BME280;52445;52.466;-1.016;2022-11-18T05:56:44;98001.72;;;9.06;80.47
65718;BME280;52445;52.466;-1.016;2022-11-18T05:59:11;98007.84;;;9.03;80.69
65718;BME280;52445;52.466;-1.016;2022-11-18T06:01:45;98008.63;;;9.05;80.24
65718;BME280;52445;52.466;-1.016;2022-11-18T06:06:57;98018.91;;;9.07;80.40
65718;BME280;52445;52.466;-1.016;2022-11-18T06:09:28;98025.75;;;9.08;80.38
65718;BME280;52445;52.466;-1.016;2022-11-18T06:11:57;98036.09;;;9.08;80.13
65718;BME280;52445;52.466;-1.016;2022-11-18T06:17:05;98039.56;;;9.07;80.07
65718;BME280;52445;52.466;-1.016;2022-11-18T06:19:34;98038.78;;;9.05;79.94
65718;BME280;52445;52.466;-1.016;2022-11-18T06:22:00;98051.69;;;9.05;80.31
65718;BME280;52445;52.466;-1.016;2022-11-18T06:24:28;98054.16;;;9.08;80.11
65718;BME280;52445;52.466;-1.016;2022-11-18T06:26:56;98057.59;;;9.08;79.87
65718;BME280;52445;52.466;-1.016;2022-11-18T06:29:24;98064.56;;;9.06;79.92
65718;BME280;52445;52.466;-1.016;2022-11-18T06:31:53;98062.84;;;9.05;79.94
65718;BME280;52445;52.466;-1.016;2022-11-18T06:34:20;98069.78;;;9.05;79.68
65718;BME280;52445;52.466;-1.016;2022-11-18T06:36:46;98068.84;;;9.07;79.98
65718;BME280;52445;52.466;-1.016;2022-11-18T06:39:13;98089.53;;;9.06;79.77
65718;BME280;52445;52.466;-1.016;2022-11-18T06:41:40;98091.25;;;9.05;79.61
65718;BME280;52445;52.466;-1.016;2022-11-18T06:44:06;98093.88;;;9.04;80.05
65718;BME280;52445;52.466;-1.016;2022-11-18T06:46:33;98101.63;;;9.04;79.66
65718;BME280;52445;52.466;-1.016;2022-11-18T06:49:19;98102.47;;;9.04;79.74
65718;BME280;52445;52.466;-1.016;2022-11-18T06:51:46;98110.25;;;9.03;79.87
65718;BME280;52445;52.466;-1.016;2022-11-18T06:54:13;98105.19;;;8.99;79.77
65718;BME280;52445;52.466;-1.016;2022-11-18T06:56:40;98112.06;;;9.00;79.63
65718;BME280;52445;52.466;-1.016;2022-11-18T06:59:06;98117.22;;;9.00;79.60
65718;BME280;52445;52.466;-1.016;2022-11-18T07:01:36;98124.06;;;9.02;79.80
65718;BME280;52445;52.466;-1.016;2022-11-18T07:04:03;98127.44;;;9.04;80.00
65718;BME280;52445;52.466;-1.016;2022-11-18T07:06:32;98134.31;;;9.05;79.89
65718;BME280;52445;52.466;-1.016;2022-11-18T07:09:00;98138.59;;;9.06;79.83
65718;BME280;52445;52.466;-1.016;2022-11-18T07:11:27;98132.59;;;9.04;79.54
65718;BME280;52445;52.466;-1.016;2022-11-18T07:13:54;98141.28;;;9.01;79.71
65718;BME280;52445;52.466;-1.016;2022-11-18T07:16:23;98144.81;;;8.98;79.53
65718;BME280;52445;52.466;-1.016;2022-11-18T07:18:51;98151.78;;;8.96;80.07
65718;BME280;52445;52.466;-1.016;2022-11-18T07:21:20;98156.88;;;8.98;79.78
65718;BME280;52445;52.466;-1.016;2022-11-18T07:23:47;98162.94;;;8.97;79.59
65718;BME280;52445;52.466;-1.016;2022-11-18T07:26:14;98178.41;;;8.97;79.56
65718;BME280;52445;52.466;-1.016;2022-11-18T07:28:42;98184.44;;;8.97;79.87
65718;BME280;52445;52.466;-1.016;2022-11-18T07:31:11;98186.13;;;8.98;79.73
65718;BME280;52445;52.466;-1.016;2022-11-18T07:33:39;98190.34;;;9.01;80.00
65718;BME280;52445;52.466;-1.016;2022-11-18T07:38:45;98210.94;;;9.04;79.63
65718;BME280;52445;52.466;-1.016;2022-11-18T07:41:16;98228.97;;;9.06;79.56
65718;BME280;52445;52.466;-1.016;2022-11-18T07:43:43;98229.03;;;9.04;79.77
65718;BME280;52445;52.466;-1.016;2022-11-18T07:46:14;98223.75;;;9.09;79.61
65718;BME280;52445;52.466;-1.016;2022-11-18T07:48:42;98235.00;;;9.06;80.19
65718;BME280;52445;52.466;-1.016;2022-11-18T07:51:10;98247.84;;;9.08;79.76
65718;BME280;52445;52.466;-1.016;2022-11-18T07:53:37;98241.91;;;9.06;80.35
65718;BME280;52445;52.466;-1.016;2022-11-18T07:56:04;98258.16;;;9.09;79.62
65718;BME280;52445;52.466;-1.016;2022-11-18T07:58:31;98251.25;;;9.10;79.70
65718;BME280;52445;52.466;-1.016;2022-11-18T08:00:58;98258.09;;;9.11;79.74
65718;BME280;52445;52.466;-1.016;2022-11-18T08:03:25;98271.00;;;9.12;80.03
65718;BME280;52445;52.466;-1.016;2022-11-18T08:05:59;98276.13;;;9.14;80.02
65718;BME280;52445;52.466;-1.016;2022-11-18T08:08:25;98280.38;;;9.15;80.00
65718;BME280;52445;52.466;-1.016;2022-11-18T08:11:01;98273.53;;;9.14;80.08
65718;BME280;52445;52.466;-1.016;2022-11-18T08:13:29;98284.00;;;9.08;80.24
65718;BME280;52445;52.466;-1.016;2022-11-18T08:15:56;98279.59;;;9.13;79.59
65718;BME280;52445;52.466;-1.016;2022-11-18T08:18:23;98287.28;;;9.16;79.50
65718;BME280;52445;52.466;-1.016;2022-11-18T08:20:50;98297.56;;;9.18;79.17
65718;BME280;52445;52.466;-1.016;2022-11-18T08:23:17;98300.97;;;9.18;79.81
65718;BME280;52445;52.466;-1.016;2022-11-18T08:25:44;98307.84;;;9.19;79.42
65718;BME280;52445;52.466;-1.016;2022-11-18T08:28:13;98308.69;;;9.20;79.50
65718;BME280;52445;52.466;-1.016;2022-11-18T08:30:40;98307.84;;;9.19;79.47
65718;BME280;52445;52.466;-1.016;2022-11-18T08:33:06;98312.94;;;9.22;79.46
65718;BME280;52445;52.466;-1.016;2022-11-18T08:35:33;98311.16;;;9.24;79.40
65718;BME280;52445;52.466;-1.016;2022-11-18T08:37:59;98317.16;;;9.25;78.76
65718;BME280;52445;52.466;-1.016;2022-11-18T08:40:26;98319.72;;;9.26;79.48
65718;BME280;52445;52.466;-1.016;2022-11-18T08:42:52;98321.44;;;9.28;79.12
65718;BME280;52445;52.466;-1.016;2022-11-18T08:45:19;98331.78;;;9.28;79.12
65718;BME280;52445;52.466;-1.016;2022-11-18T08:47:46;98336.06;;;9.27;79.03
65718;BME280;52445;52.466;-1.016;2022-11-18T08:50:12;98341.25;;;9.27;78.97
65718;BME280;52445;52.466;-1.016;2022-11-18T08:52:39;98338.63;;;9.29;78.96
65718;BME280;52445;52.466;-1.016;2022-11-18T08:55:05;98347.16;;;9.31;78.79
65718;BME280;52445;52.466;-1.016;2022-11-18T08:57:32;98351.44;;;9.33;78.95
65718;BME280;52445;52.466;-1.016;2022-11-18T08:59:59;98364.28;;;9.35;78.34
65718;BME280;52445;52.466;-1.016;2022-11-18T09:02:25;98367.66;;;9.38;78.74
65718;BME280;52445;52.466;-1.016;2022-11-18T09:04:52;98371.94;;;9.39;78.54
65718;BME280;52445;52.466;-1.016;2022-11-18T09:07:20;98369.31;;;9.41;78.29
65718;BME280;52445;52.466;-1.016;2022-11-18T09:09:47;98372.78;;;9.40;78.25
65718;BME280;52445;52.466;-1.016;2022-11-18T09:12:14;98373.59;;;9.42;78.72
65718;BME280;52445;52.466;-1.016;2022-11-18T09:14:44;98379.59;;;9.44;78.67
65718;BME280;52445;52.466;-1.016;2022-11-18T09:17:30;98388.00;;;9.52;77.93
65718;BME280;52445;52.466;-1.016;2022-11-18T09:19:57;98387.91;;;9.56;78.50
65718;BME280;52445;52.466;-1.016;2022-11-18T09:22:23;98389.53;;;9.60;78.31
65718;BME280;52445;52.466;-1.016;2022-11-18T09:24:50;98395.38;;;9.67;78.24
65718;BME280;52445;52.466;-1.016;2022-11-18T09:27:17;98403.66;;;9.81;78.12
65718;BME280;52445;52.466;-1.016;2022-11-18T09:29:44;98411.03;;;9.95;78.36
65718;BME280;52445;52.466;-1.016;2022-11-18T09:32:11;98407.41;;;10.02;78.00
65718;BME280;52445;52.466;-1.016;2022-11-18T09:34:37;98421.03;;;10.08;78.30
65718;BME280;52445;52.466;-1.016;2022-11-18T09:37:04;98414.91;;;10.12;77.63
65718;BME280;52445;52.466;-1.016;2022-11-18T09:39:34;98430.25;;;10.18;78.18
65718;BME280;52445;52.466;-1.016;2022-11-18T09:47:36;98449.09;;;10.57;76.76
65718;BME280;52445;52.466;-1.016;2022-11-18T09:50:09;98451.13;;;10.45;77.05
65718;BME280;52445;52.466;-1.016;2022-11-18T09:53:14;98447.69;;;10.45;76.40
65718;BME280;52445;52.466;-1.016;2022-11-18T09:55:43;98450.50;;;10.67;76.75
65718;BME280;52445;52.466;-1.016;2022-11-18T09:58:24;98460.66;;;10.75;77.34
65718;BME280;52445;52.466;-1.016;2022-11-18T10:00:55;98458.91;;;10.75;75.99
65718;BME280;52445;52.466;-1.016;2022-11-18T10:03:26;98467.56;;;10.74;76.01
65718;BME280;52445;52.466;-1.016;2022-11-18T10:06:04;98469.28;;;10.75;75.44
65718;BME280;52445;52.466;-1.016;2022-11-18T10:19:35;98485.38;;;12.49;75.85
65718;BME280;52445;52.466;-1.016;2022-11-18T10:24:45;98490.91;;;12.88;73.21
65718;BME280;52445;52.466;-1.016;2022-11-18T10:27:15;98501.09;;;12.94;72.54
65718;BME280;52445;52.466;-1.016;2022-11-18T10:29:42;98503.44;;;13.00;72.02
65718;BME280;52445;52.466;-1.016;2022-11-18T10:32:12;98506.84;;;13.02;72.57
65718;BME280;52445;52.466;-1.016;2022-11-18T10:34:57;98511.25;;;13.00;73.09
65718;BME280;52445;52.466;-1.016;2022-11-18T10:40:03;98515.31;;;13.07;72.73
65718;BME280;52445;52.466;-1.016;2022-11-18T10:42:43;98516.22;;;13.06;72.20
65718;BME280;52445;52.466;-1.016;2022-11-18T10:45:29;98518.09;;;13.03;71.82
65718;BME280;52445;52.466;-1.016;2022-11-18T10:53:31;98517.59;;;13.17;70.75
65718;BME280;52445;52.466;-1.016;2022-11-18T10:58:39;98539.03;;;13.22;70.40
65718;BME280;52445;52.466;-1.016;2022-11-18T11:01:19;98539.03;;;13.22;71.06
65718;BME280;52445;52.466;-1.016;2022-11-18T11:04:00;98541.59;;;13.23;70.06
65718;BME280;52445;52.466;-1.016;2022-11-18T11:06:34;98545.94;;;13.23;69.95
65718;BME280;52445;52.466;-1.016;2022-11-18T11:14:39;98550.00;;;13.06;68.56
65718;BME280;52445;52.466;-1.016;2022-11-18T11:19:51;98563.09;;;12.79;68.42
65718;BME280;52445;52.466;-1.016;2022-11-18T11:22:21;98563.31;;;12.73;69.49
65718;BME280;52445;52.466;-1.016;2022-11-18T11:24:48;98566.09;;;12.68;68.96
65718;BME280;52445;52.466;-1.016;2022-11-18T11:27:23;98574.84;;;12.66;68.57
65718;BME280;52445;52.466;-1.016;2022-11-18T11:30:18;98570.59;;;12.63;69.43
65718;BME280;52445;52.466;-1.016;2022-11-18T11:35:24;98588.13;;;12.56;68.90
65718;BME280;52445;52.466;-1.016;2022-11-18T11:37:56;98578.81;;;12.51;69.15
65718;BME280;52445;52.466;-1.016;2022-11-18T11:51:30;98599.38;;;12.31;68.47
65718;BME280;52445;52.466;-1.016;2022-11-18T12:07:11;98627.63;;;12.14;68.61
65718;BME280;52445;52.466;-1.016;2022-11-18T12:13:11;98630.47;;;12.06;68.64
65718;BME280;52445;52.466;-1.016;2022-11-18T12:18:35;98640.91;;;12.31;67.28
65718;BME280;52445;52.466;-1.016;2022-11-18T12:21:03;98641.41;;;12.16;68.17
65718;BME280;52445;52.466;-1.016;2022-11-18T12:23:31;98645.78;;;12.14;67.90
65718;BME280;52445;52.466;-1.016;2022-11-18T12:26:05;98647.44;;;12.16;68.69
65718;BME280;52445;52.466;-1.016;2022-11-18T12:28:38;98649.88;;;12.21;69.61
65718;BME280;52445;52.466;-1.016;2022-11-18T12:34:04;98660.09;;;12.27;69.77
65718;BME280;52445;52.466;-1.016;2022-11-18T12:42:03;98668.41;;;12.10;68.63
65718;BME280;52445;52.466;-1.016;2022-11-18T12:44:51;98671.94;;;12.07;69.59
65718;BME280;52445;52.466;-1.016;2022-11-18T12:50:20;98679.91;;;12.00;68.61
65718;BME280;52445;52.466;-1.016;2022-11-18T12:52:47;98685.19;;;11.96;68.71
65718;BME280;52445;52.466;-1.016;2022-11-18T12:55:20;98687.06;;;11.93;68.68
65718;BME280;52445;52.466;-1.016;2022-11-18T12:57:47;98697.50;;;11.90;69.86
65718;BME280;52445;52.466;-1.016;2022-11-18T13:02:54;98698.50;;;12.16;67.54
65718;BME280;52445;52.466;-1.016;2022-11-18T13:05:25;98700.81;;;11.95;68.56
65718;BME280;52445;52.466;-1.016;2022-11-18T13:08:12;98702.88;;;11.83;69.19
65718;BME280;52445;52.466;-1.016;2022-11-18T13:15:59;98713.38;;;11.80;69.58
65718;BME280;52445;52.466;-1.016;2022-11-18T13:18:51;98713.44;;;11.77;69.56
65718;BME280;52445;52.466;-1.016;2022-11-18T13:21:21;98727.28;;;11.76;69.11
65718;BME280;52445;52.466;-1.016;2022-11-18T13:24:13;98729.06;;;11.76;69.75
65718;BME280;52445;52.466;-1.016;2022-11-18T13:26:41;98725.50;;;11.78;68.92
65718;BME280;52445;52.466;-1.016;2022-11-18T13:32:22;98726.69;;;11.66;68.66
65718;BME280;52445;52.466;-1.016;2022-11-18T13:34:52;98725.78;;;11.69;68.81
65718;BME280;52445;52.466;-1.016;2022-11-18T13:37:24;98728.44;;;11.67;69.43
65718;BME280;52445;52.466;-1.016;2022-11-18T13:39:51;98731.13;;;11.63;69.66
65718;BME280;52445;52.466;-1.016;2022-11-18T13:42:22;98732.84;;;11.64;70.17
65718;BME280;52445;52.466;-1.016;2022-11-18T13:44:54;98741.44;;;11.66;69.86
65718;BME280;52445;52.466;-1.016;2022-11-18T13:55:26;98747.88;;;11.82;69.31
65718;BME280;52445;52.466;-1.016;2022-11-18T13:58:01;98759.19;;;11.80;70.11
65718;BME280;52445;52.466;-1.016;2022-11-18T14:00:30;98753.09;;;11.81;70.44
65718;BME280;52445;52.466;-1.016;2022-11-18T14:03:01;98760.06;;;11.80;69.09
65718;BME280;52445;52.466;-1.016;2022-11-18T14:05:28;98752.19;;;11.82;69.48
65718;BME280;52445;52.466;-1.016;2022-11-18T14:10:41;98763.44;;;11.82;70.22
65718;BME280;52445;52.466;-1.016;2022-11-18T14:15:55;98765.06;;;11.87;69.99
65718;BME280;52445;52.466;-1.016;2022-11-18T14:18:26;98772.38;;;11.72;71.19
65718;BME280;52445;52.466;-1.016;2022-11-18T14:20:54;98773.81;;;11.82;70.36
65718;BME280;52445;52.466;-1.016;2022-11-18T14:23:27;98779.91;;;11.81;70.55
65718;BME280;52445;52.466;-1.016;2022-11-18T14:25:55;98789.41;;;11.81;69.64
65718;BME280;52445;52.466;-1.016;2022-11-18T14:31:01;98799.06;;;11.77;69.47
65718;BME280;52445;52.466;-1.016;2022-11-18T14:33:30;98800.84;;;11.74;70.83
65718;BME280;52445;52.466;-1.016;2022-11-18T14:35:59;98803.50;;;11.72;70.16
65718;BME280;52445;52.466;-1.016;2022-11-18T14:41:09;98808.81;;;11.99;67.86
65718;BME280;52445;52.466;-1.016;2022-11-18T14:43:36;98815.41;;;11.79;68.90
65718;BME280;52445;52.466;-1.016;2022-11-18T14:46:05;98818.97;;;11.75;70.40
65718;BME280;52445;52.466;-1.016;2022-11-18T14:48:36;98813.88;;;11.72;70.16
65718;BME280;52445;52.466;-1.016;2022-11-18T14:51:03;98819.16;;;11.69;68.93
65718;BME280;52445;52.466;-1.016;2022-11-18T14:53:30;98823.53;;;11.67;69.61
65718;BME280;52445;52.466;-1.016;2022-11-18T14:55:57;98819.25;;;11.66;69.31
65718;BME280;52445;52.466;-1.016;2022-11-18T14:58:25;98841.03;;;11.59;70.26
65718;BME280;52445;52.466;-1.016;2022-11-18T15:00:52;98841.13;;;11.55;70.46
65718;BME280;52445;52.466;-1.016;2022-11-18T15:03:18;98840.47;;;11.47;68.60
65718;BME280;52445;52.466;-1.016;2022-11-18T15:05:45;98847.50;;;11.43;70.01
65718;BME280;52445;52.466;-1.016;2022-11-18T15:08:12;98846.72;;;11.38;70.31
65718;BME280;52445;52.466;-1.016;2022-11-18T15:10:39;98848.59;;;11.33;70.36
65718;BME280;52445;52.466;-1.016;2022-11-18T15:13:05;98863.47;;;11.26;70.83
65718;BME280;52445;52.466;-1.016;2022-11-18T15:15:32;98874.88;;;11.19;69.51
65718;BME280;52445;52.466;-1.016;2022-11-18T15:17:58;98876.75;;;11.12;69.80
65718;BME280;52445;52.466;-1.016;2022-11-18T15:20:25;98886.41;;;11.05;70.70
65718;BME280;52445;52.466;-1.016;2022-11-18T15:22:52;98883.06;;;11.00;70.34
65718;BME280;52445;52.466;-1.016;2022-11-18T15:25:18;98891.81;;;10.96;70.47
65718;BME280;52445;52.466;-1.016;2022-11-18T15:27:45;98893.66;;;10.91;70.33
65718;BME280;52445;52.466;-1.016;2022-11-18T15:30:13;98901.56;;;10.85;71.10
65718;BME280;52445;52.466;-1.016;2022-11-18T15:32:41;98909.31;;;10.85;71.61
65718;BME280;52445;52.466;-1.016;2022-11-18T15:35:10;98916.25;;;10.83;70.56
65718;BME280;52445;52.466;-1.016;2022-11-18T15:37:37;98914.56;;;10.82;71.84
65718;BME280;52445;52.466;-1.016;2022-11-18T15:40:04;98915.47;;;10.80;71.42
65718;BME280;52445;52.466;-1.016;2022-11-18T15:42:31;98925.97;;;10.73;71.89
65718;BME280;52445;52.466;-1.016;2022-11-18T15:45:05;98929.50;;;10.69;72.16